createdAt,value
2017-10-24T00:01:13.667Z,101893.44
2017-10-24T00:03:42.013Z,101892.15
2017-10-24T00:06:10.666Z,101893.99
2017-10-24T00:08:39.715Z,101902.28
2017-10-24T00:11:08.111Z,101893.47
2017-10-24T00:13:37.379Z,101893.59
2017-10-24T00:16:05.740Z,101900.42
2017-10-24T00:18:34.885Z,101902.78
2017-10-24T00:21:03.395Z,101907.22
2017-10-24T00:23:31.737Z,101914.05
2017-10-24T00:26:00.085Z,101913.44
2017-10-24T00:28:28.495Z,101922.95
2017-10-24T00:30:56.820Z,101913.17
2017-10-24T00:33:25.908Z,101915.06
2017-10-24T00:35:54.296Z,101922.69
2017-10-24T00:38:22.663Z,101922.16
2017-10-24T00:40:51.046Z,101924.59
2017-10-24T00:43:19.486Z,101926.89
2017-10-24T00:45:48.609Z,101927.84
2017-10-24T00:48:16.958Z,101933.74
2017-10-24T00:50:45.367Z,101933.22
2017-10-24T00:53:14.531Z,101933.11
2017-10-24T00:55:42.877Z,101933.91
2017-10-24T00:58:11.247Z,101928.65
2017-10-24T01:00:39.589Z,101933.69
2017-10-24T01:03:08.194Z,101939.13
2017-10-24T01:05:36.872Z,101932.34
2017-10-24T01:08:05.986Z,101939.55
2017-10-24T01:10:34.331Z,101935.07
2017-10-24T01:13:02.709Z,101929.86
2017-10-24T01:15:31.066Z,101930.10
2017-10-24T01:18:00.075Z,101932.59
2017-10-24T01:20:28.454Z,101936.64
2017-10-24T01:22:56.789Z,101940.72
2017-10-24T01:25:25.148Z,101934.27
2017-10-24T01:27:53.737Z,101938.11
2017-10-24T01:30:22.081Z,101930.28
2017-10-24T01:32:50.433Z,101922.88
2017-10-24T01:35:19.570Z,101915.97
2017-10-24T01:37:47.907Z,101918.81
2017-10-24T01:40:17.022Z,101931.33
2017-10-24T01:42:46.287Z,101924.70
2017-10-24T01:45:14.640Z,101925.23
2017-10-24T01:47:42.995Z,101926.94
2017-10-24T01:50:11.568Z,101917.55
2017-10-24T01:52:39.926Z,101927.70
2017-10-24T01:55:09.043Z,101920.25
2017-10-24T01:57:37.422Z,101920.39
2017-10-24T02:00:05.780Z,101924.32
2017-10-24T02:02:34.130Z,101926.03
2017-10-24T02:05:02.523Z,101922.53
2017-10-24T02:07:30.876Z,101914.57
2017-10-24T02:09:59.252Z,101923.84
2017-10-24T02:12:28.410Z,101918.36
2017-10-24T02:14:56.775Z,101926.00
2017-10-24T02:17:25.955Z,101919.61
2017-10-24T02:19:54.343Z,101927.25
2017-10-24T02:22:23.470Z,101936.14
2017-10-24T02:24:51.809Z,101943.42
2017-10-24T02:27:20.192Z,101947.59
2017-10-24T02:29:48.563Z,101947.12
2017-10-24T02:32:16.914Z,101950.17
2017-10-24T02:34:45.499Z,101955.36
2017-10-24T02:37:13.891Z,101951.44
2017-10-24T02:39:42.250Z,101956.34
2017-10-24T02:42:10.628Z,101955.09
2017-10-24T02:44:38.963Z,101953.69
2017-10-24T02:47:08.067Z,101956.30
2017-10-24T02:49:36.456Z,101961.66
2017-10-24T02:52:04.812Z,101961.63
2017-10-24T02:54:33.159Z,101962.53
2017-10-24T02:57:02.397Z,101958.91
2017-10-24T02:59:31.519Z,101957.73
2017-10-24T03:01:59.889Z,101958.63
2017-10-24T03:04:28.244Z,101965.51
2017-10-24T03:06:56.585Z,101964.09
2017-10-24T03:09:24.961Z,101968.50
2017-10-24T03:11:53.332Z,101976.28
2017-10-24T03:14:21.663Z,101978.30
2017-10-24T03:16:50.764Z,101972.03
2017-10-24T03:19:20.046Z,101980.13
2017-10-24T03:21:48.386Z,101976.06
2017-10-24T03:24:16.729Z,101989.17
2017-10-24T03:26:45.875Z,101982.81
2017-10-24T03:29:15.079Z,101987.50
2017-10-24T03:31:44.310Z,101984.15
2017-10-24T03:34:12.687Z,101994.23
2017-10-24T03:36:42.244Z,101989.20
2017-10-24T03:39:11.346Z,101984.30
2017-10-24T03:41:40.594Z,101968.18
2017-10-24T03:44:08.960Z,101976.13
2017-10-24T03:46:37.323Z,101982.16
2017-10-24T03:49:05.694Z,101980.81
2017-10-24T03:51:34.056Z,101986.72
2017-10-24T03:54:03.076Z,101982.16
2017-10-24T03:56:31.470Z,101987.53
2017-10-24T03:59:00.610Z,101990.92
2017-10-24T04:01:28.964Z,101985.55
2017-10-24T04:03:57.546Z,101987.27
2017-10-24T04:06:25.878Z,101994.12
2017-10-24T04:08:54.234Z,101989.87
2017-10-24T04:11:23.453Z,101983.64
2017-10-24T04:13:51.809Z,101983.59
2017-10-24T04:16:20.153Z,101986.75
2017-10-24T04:18:49.244Z,101978.34
2017-10-24T04:21:17.596Z,101974.43
2017-10-24T04:23:45.957Z,101969.09
2017-10-24T04:26:14.484Z,101973.30
2017-10-24T04:28:43.411Z,101975.35
2017-10-24T04:31:11.753Z,101982.78
2017-10-24T04:33:40.117Z,101978.26
2017-10-24T04:36:09.399Z,101987.29
2017-10-24T04:38:37.749Z,101984.23
2017-10-24T04:41:07.038Z,101988.34
2017-10-24T04:43:36.654Z,101992.44
2017-10-24T04:46:04.999Z,101997.20
2017-10-24T04:48:33.455Z,101991.91
2017-10-24T04:51:01.810Z,102002.91
2017-10-24T04:53:30.169Z,101993.04
2017-10-24T04:55:58.648Z,101985.06
2017-10-24T04:58:26.995Z,101998.44
2017-10-24T05:00:56.079Z,101997.86
2017-10-24T05:03:24.451Z,101992.44
2017-10-24T05:05:52.808Z,101996.30
2017-10-24T05:08:21.150Z,101993.95
2017-10-24T05:10:50.771Z,101994.59
2017-10-24T05:13:19.113Z,101991.77
2017-10-24T05:15:47.464Z,101987.92
2017-10-24T05:18:16.620Z,101982.18
2017-10-24T05:20:44.974Z,101979.28
2017-10-24T05:23:13.306Z,101979.75
2017-10-24T05:25:41.668Z,101982.72
2017-10-24T05:28:10.028Z,101984.55
2017-10-24T05:30:39.929Z,101983.63
2017-10-24T05:33:09.455Z,101986.37
2017-10-24T05:35:39.137Z,101989.22
2017-10-24T05:38:08.381Z,101994.55
2017-10-24T05:40:36.804Z,101993.92
2017-10-24T05:43:05.386Z,101992.48
2017-10-24T05:45:34.526Z,102007.00
2017-10-24T05:48:03.675Z,101992.88
2017-10-24T05:50:32.713Z,101995.72
2017-10-24T05:53:01.845Z,101994.42
2017-10-24T05:55:30.291Z,101995.28
2017-10-24T05:57:59.496Z,101985.13
2017-10-24T06:00:28.224Z,101993.03
2017-10-24T06:02:56.601Z,101993.78
2017-10-24T06:05:24.954Z,102003.00
2017-10-24T06:07:54.173Z,102000.70
2017-10-24T06:10:23.138Z,101992.92
2017-10-24T06:12:51.518Z,101986.33
2017-10-24T06:15:19.955Z,101985.89
2017-10-24T06:17:48.808Z,101999.19
2017-10-24T06:20:17.150Z,102004.85
2017-10-24T06:22:46.279Z,102012.39
2017-10-24T06:25:14.650Z,102007.91
2017-10-24T06:27:43.021Z,102011.40
2017-10-24T06:30:12.151Z,102018.00
2017-10-24T06:32:40.844Z,102010.88
2017-10-24T06:35:09.184Z,102019.23
2017-10-24T06:37:38.303Z,102029.11
2017-10-24T06:40:06.755Z,102033.36
2017-10-24T06:42:35.090Z,102026.52
2017-10-24T06:45:03.452Z,102023.78
2017-10-24T06:47:32.097Z,102025.34
2017-10-24T06:50:01.214Z,102015.66
2017-10-24T06:52:30.274Z,102023.16
2017-10-24T06:54:59.345Z,102023.38
2017-10-24T06:57:27.695Z,102005.12
2017-10-24T06:59:56.094Z,102007.77
2017-10-24T07:02:24.758Z,102006.27
2017-10-24T07:04:53.859Z,102025.11
2017-10-24T07:07:22.191Z,102030.78
2017-10-24T07:09:50.580Z,102030.85
2017-10-24T07:12:19.696Z,102034.70
2017-10-24T07:14:48.134Z,102023.37
2017-10-24T07:17:16.516Z,102034.42
2017-10-24T07:19:44.866Z,102021.25
2017-10-24T07:22:13.219Z,102026.31
2017-10-24T07:24:41.766Z,102022.69
2017-10-24T07:27:10.121Z,102018.88
2017-10-24T07:29:39.290Z,102018.68
2017-10-24T07:32:07.671Z,102015.98
2017-10-24T07:34:36.782Z,102021.81
2017-10-24T07:37:05.882Z,102006.89
2017-10-24T07:39:36.661Z,102012.15
2017-10-24T07:42:05.776Z,102005.91
2017-10-24T07:44:34.137Z,102004.98
2017-10-24T07:47:04.432Z,102003.61
2017-10-24T07:49:32.778Z,102011.93
2017-10-24T07:52:01.129Z,102008.17
2017-10-24T07:54:29.511Z,102005.02
2017-10-24T07:56:58.112Z,102005.34
2017-10-24T07:59:26.457Z,102001.73
2017-10-24T08:01:55.679Z,101996.09
2017-10-24T08:04:24.016Z,101992.73
2017-10-24T08:06:52.375Z,101992.30
2017-10-24T08:09:21.416Z,101991.70
2017-10-24T08:11:49.783Z,101997.47
2017-10-24T08:14:18.837Z,101991.80
2017-10-24T08:16:47.223Z,101994.70
2017-10-24T08:19:15.594Z,101997.51
2017-10-24T08:21:43.939Z,102000.41
2017-10-24T08:24:13.036Z,102003.77
2017-10-24T08:26:42.039Z,102017.00
2017-10-24T08:29:11.157Z,102006.61
2017-10-24T08:31:39.745Z,102015.78
2017-10-24T08:34:08.460Z,102007.02
2017-10-24T08:36:37.649Z,102007.98
2017-10-24T08:39:07.134Z,102004.52
2017-10-24T08:41:35.483Z,102006.17
2017-10-24T08:44:03.827Z,102003.75
2017-10-24T08:46:32.965Z,101995.83
2017-10-24T08:49:01.333Z,101988.27
2017-10-24T08:51:30.383Z,101975.32
2017-10-24T08:53:59.812Z,101965.19
2017-10-24T08:56:29.070Z,101965.17
2017-10-24T08:58:57.425Z,101954.80
2017-10-24T09:01:28.433Z,101952.47
2017-10-24T09:03:57.718Z,101954.73
2017-10-24T09:06:35.480Z,101944.45
2017-10-24T09:12:14.430Z,101939.79
2017-10-24T09:14:42.757Z,101943.48
2017-10-24T09:17:44.517Z,101952.47
2017-10-24T09:20:13.664Z,101948.84
2017-10-24T09:22:42.019Z,101944.25
2017-10-24T09:25:11.165Z,101950.52
2017-10-24T09:27:39.748Z,101955.00
2017-10-24T09:30:08.770Z,101960.09
2017-10-24T09:32:39.568Z,101953.06
2017-10-24T09:35:07.937Z,101952.80
2017-10-24T09:37:36.281Z,101951.88
2017-10-24T09:40:04.671Z,101947.24
2017-10-24T09:42:33.086Z,101950.17
2017-10-24T09:45:01.449Z,101953.17
2017-10-24T09:47:29.824Z,101945.61
2017-10-24T09:49:58.209Z,101943.19
2017-10-24T09:52:26.565Z,101934.66
2017-10-24T09:54:55.043Z,101942.64
2017-10-24T09:57:24.162Z,101947.08
2017-10-24T09:59:52.502Z,101959.92
2017-10-24T10:02:21.921Z,101957.09
2017-10-24T10:04:51.041Z,101963.23
2017-10-24T10:07:20.175Z,101946.47
2017-10-24T10:09:48.604Z,101939.36
2017-10-24T10:12:17.022Z,101929.40
2017-10-24T10:14:46.062Z,101925.81
2017-10-24T10:17:14.778Z,101926.39
2017-10-24T10:19:43.107Z,101924.33
2017-10-24T10:22:12.222Z,101935.18
2017-10-24T10:24:41.510Z,101928.77
2017-10-24T10:27:10.613Z,101927.61
2017-10-24T10:29:39.897Z,101936.13
2017-10-24T10:32:08.286Z,101923.81
2017-10-24T10:34:37.405Z,101931.30
2017-10-24T10:37:05.754Z,101930.53
2017-10-24T10:39:34.331Z,101937.45
2017-10-24T10:42:02.687Z,101925.81
2017-10-24T10:44:31.048Z,101926.75
2017-10-24T10:46:59.442Z,101919.42
2017-10-24T10:49:27.799Z,101916.70
2017-10-24T10:51:56.142Z,101917.13
2017-10-24T10:54:25.446Z,101924.98
2017-10-24T10:56:55.329Z,101912.72
2017-10-24T10:59:23.711Z,101901.78
2017-10-24T11:01:52.453Z,101901.31
2017-10-24T11:04:20.808Z,101908.59
2017-10-24T11:06:49.924Z,101904.31
2017-10-24T11:09:19.053Z,101909.23
2017-10-24T11:11:47.399Z,101907.14
2017-10-24T11:14:15.748Z,101920.78
2017-10-24T11:16:44.950Z,101906.55
2017-10-24T11:19:14.074Z,101902.50
2017-10-24T11:21:48.948Z,101901.64
2017-10-24T11:24:17.797Z,101894.75
2017-10-24T11:26:46.146Z,101893.37
2017-10-24T11:29:15.337Z,101883.66
2017-10-24T11:31:44.106Z,101881.87
2017-10-24T11:34:12.467Z,101880.59
2017-10-24T11:36:41.606Z,101883.56
2017-10-24T11:39:09.941Z,101874.92
2017-10-24T11:41:38.299Z,101872.65
2017-10-24T11:44:06.739Z,101872.00
2017-10-24T11:46:35.870Z,101863.73
2017-10-24T11:49:04.590Z,101861.70
2017-10-24T11:51:32.963Z,101847.45
2017-10-24T11:54:02.238Z,101849.91
2017-10-24T11:56:30.578Z,101847.70
2017-10-24T11:58:59.408Z,101844.57
2017-10-24T12:01:27.753Z,101838.44
2017-10-24T12:03:56.135Z,101835.37
2017-10-24T12:06:25.494Z,101835.57
2017-10-24T12:08:55.387Z,101834.94
2017-10-24T12:11:23.737Z,101828.20
2017-10-24T12:13:52.895Z,101828.73
2017-10-24T12:16:21.242Z,101832.33
2017-10-24T12:18:49.584Z,101833.53
2017-10-24T12:21:18.742Z,101835.19
2017-10-24T12:23:47.095Z,101836.52
2017-10-24T12:26:15.437Z,101834.50
2017-10-24T12:28:44.876Z,101835.36
2017-10-24T12:31:13.228Z,101841.84
2017-10-24T12:33:42.334Z,101835.67
2017-10-24T12:36:10.724Z,101832.20
2017-10-24T12:38:39.068Z,101836.97
2017-10-24T12:41:08.193Z,101831.41
2017-10-24T12:43:37.338Z,101828.27
2017-10-24T12:46:22.369Z,101820.95
2017-10-24T12:48:51.486Z,101819.98
2017-10-24T12:51:19.843Z,101817.59
2017-10-24T12:53:48.209Z,101815.13
2017-10-24T12:56:17.357Z,101817.52
2017-10-24T12:58:46.722Z,101811.64
2017-10-24T13:01:15.099Z,101816.92
2017-10-24T13:03:43.494Z,101809.23
2017-10-24T13:06:11.875Z,101819.80
2017-10-24T13:08:40.259Z,101816.48
2017-10-24T13:11:08.972Z,101806.41
2017-10-24T13:13:37.347Z,101804.27
2017-10-24T13:16:05.875Z,101803.45
2017-10-24T13:18:34.463Z,101803.34
2017-10-24T13:21:02.830Z,101809.15
2017-10-24T13:23:31.560Z,101806.25
2017-10-24T13:25:59.942Z,101807.09
2017-10-24T13:28:28.323Z,101812.56
2017-10-24T13:30:56.668Z,101805.33
2017-10-24T13:33:26.096Z,101799.35
2017-10-24T13:35:54.468Z,101798.58
2017-10-24T13:38:23.451Z,101798.83
2017-10-24T13:40:54.489Z,101812.55
2017-10-24T13:43:22.958Z,101812.14
2017-10-24T13:45:52.094Z,101811.70
2017-10-24T13:48:20.474Z,101807.35
2017-10-24T13:50:48.832Z,101801.14
2017-10-24T13:53:17.186Z,101804.72
2017-10-24T13:55:46.393Z,101800.30
2017-10-24T13:58:15.513Z,101788.16
2017-10-24T14:00:44.096Z,101794.77
2017-10-24T14:03:12.486Z,101787.65
2017-10-24T14:05:46.113Z,101791.56
2017-10-24T14:08:20.780Z,101794.46
2017-10-24T14:10:50.140Z,101790.97
2017-10-24T14:13:19.257Z,101788.16
2017-10-24T14:15:48.024Z,101785.89
2017-10-24T14:18:16.388Z,101786.28
2017-10-24T14:20:44.725Z,101775.33
2017-10-24T14:23:13.366Z,101780.23
2017-10-24T14:25:41.730Z,101787.25
2017-10-24T14:28:10.065Z,101782.05
2017-10-24T14:30:38.457Z,101789.36
2017-10-24T14:33:07.575Z,101788.94
2017-10-24T14:35:35.924Z,101787.13
2017-10-24T14:38:05.110Z,101769.73
2017-10-24T14:40:33.460Z,101772.58
2017-10-24T14:43:01.815Z,101769.17
2017-10-24T14:45:30.190Z,101770.45
2017-10-24T14:47:59.147Z,101766.80
2017-10-24T14:50:28.278Z,101771.03
2017-10-24T14:52:56.663Z,101766.61
2017-10-24T14:55:24.998Z,101756.77
2017-10-24T14:57:53.345Z,101751.58
2017-10-24T15:00:21.894Z,101759.17
2017-10-24T15:02:50.242Z,101755.33
2017-10-24T15:05:19.363Z,101752.00
2017-10-24T15:07:47.779Z,101746.03
2017-10-24T15:10:16.131Z,101748.93
2017-10-24T15:12:44.800Z,101745.47
2017-10-24T15:15:13.177Z,101741.89
2017-10-24T15:17:41.548Z,101738.02
2017-10-24T15:20:10.928Z,101735.63
2017-10-24T15:22:40.392Z,101724.71
2017-10-24T15:25:08.784Z,101725.05
2017-10-24T15:27:37.122Z,101721.17
2017-10-24T15:30:06.490Z,101717.38
2017-10-24T15:32:34.842Z,101720.61
2017-10-24T15:35:03.188Z,101735.54
2017-10-24T15:37:32.073Z,101723.39
2017-10-24T15:40:01.180Z,101718.66
2017-10-24T15:42:30.333Z,101702.53
2017-10-24T15:44:58.885Z,101694.34
2017-10-24T15:47:27.226Z,101675.92
2017-10-24T15:49:55.583Z,101667.14
2017-10-24T15:52:23.984Z,101662.11
2017-10-24T15:54:52.345Z,101649.40
2017-10-24T15:57:21.476Z,101644.13
2017-10-24T15:59:49.836Z,101636.79
2017-10-24T16:02:19.341Z,101618.02
2017-10-24T16:04:48.442Z,101616.92
2017-10-24T16:07:17.236Z,101601.73
2017-10-24T16:09:45.581Z,101618.70
2017-10-24T16:12:13.962Z,101604.97
2017-10-24T16:14:42.444Z,101604.72
2017-10-24T16:17:11.633Z,101605.72
2017-10-24T16:19:39.990Z,101608.09
2017-10-24T16:22:08.388Z,101602.84
2017-10-24T16:24:36.742Z,101607.28
2017-10-24T16:27:05.538Z,101616.89
2017-10-24T16:29:34.348Z,101615.17
2017-10-24T16:32:02.721Z,101614.81
2017-10-24T16:34:31.576Z,101627.10
2017-10-24T16:36:59.972Z,101647.41
2017-10-24T16:39:29.044Z,101666.52
2017-10-24T16:41:58.223Z,101679.45
2017-10-24T16:44:27.367Z,101682.88
2017-10-24T16:46:55.717Z,101677.15
2017-10-24T16:49:24.081Z,101674.34
2017-10-24T16:51:53.416Z,101674.34
2017-10-24T16:54:22.339Z,101663.78
2017-10-24T16:56:50.918Z,101645.29
2017-10-24T16:59:19.320Z,101635.06
2017-10-24T17:01:47.705Z,101631.93
2017-10-24T17:04:17.360Z,101636.87
2017-10-24T17:06:45.730Z,101639.92
2017-10-24T17:09:14.074Z,101636.09
2017-10-24T17:11:43.201Z,101638.64
2017-10-24T17:14:11.807Z,101644.66
2017-10-24T17:16:40.290Z,101646.47
2017-10-24T17:19:08.639Z,101644.86
2017-10-24T17:21:37.018Z,101639.33
2017-10-24T17:24:05.396Z,101639.41
2017-10-24T17:26:34.048Z,101627.75
2017-10-24T17:29:02.602Z,101634.66
2017-10-24T17:31:30.944Z,101638.67
2017-10-24T17:33:59.293Z,101640.35
2017-10-24T17:36:28.259Z,101619.34
2017-10-24T17:38:56.667Z,101617.33
2017-10-24T17:41:25.029Z,101614.45
2017-10-24T17:43:54.198Z,101615.61
2017-10-24T17:46:22.547Z,101620.34
2017-10-24T17:48:51.692Z,101635.60
2017-10-24T17:51:20.069Z,101634.31
2017-10-24T17:53:48.429Z,101627.26
2017-10-24T17:56:16.787Z,101620.19
2017-10-24T17:58:45.567Z,101622.70
2017-10-24T18:01:13.951Z,101607.75
2017-10-24T18:03:42.307Z,101615.63
2017-10-24T18:06:10.697Z,101606.33
2017-10-24T18:08:39.838Z,101606.87
2017-10-24T18:11:08.518Z,101605.06
2017-10-24T18:13:37.047Z,101595.19
2017-10-24T18:16:06.189Z,101592.87
2017-10-24T18:18:35.400Z,101597.86
2017-10-24T18:21:03.841Z,101601.75
2017-10-24T18:23:32.996Z,101601.23
2017-10-24T18:26:01.338Z,101607.22
2017-10-24T18:28:29.720Z,101614.13
2017-10-24T18:30:58.520Z,101596.52
2017-10-24T18:33:26.856Z,101601.36
2017-10-24T18:35:56.025Z,101599.97
2017-10-24T18:38:24.383Z,101599.58
2017-10-24T18:40:52.744Z,101597.80
2017-10-24T18:43:21.161Z,101594.72
2017-10-24T18:45:49.503Z,101588.98
2017-10-24T18:48:18.621Z,101589.27
2017-10-24T18:50:47.570Z,101595.63
2017-10-24T18:53:15.903Z,101592.81
2017-10-24T18:55:44.267Z,101601.59
2017-10-24T18:58:12.667Z,101597.61
2017-10-24T19:00:41.039Z,101596.26
2017-10-24T19:03:09.412Z,101593.86
2017-10-24T19:05:38.085Z,101587.55
2017-10-24T19:08:06.685Z,101592.86
2017-10-24T19:10:35.402Z,101584.02
2017-10-24T19:13:03.804Z,101574.60
2017-10-24T19:15:32.925Z,101564.85
2017-10-24T19:18:02.056Z,101558.61
2017-10-24T19:20:30.432Z,101557.70
2017-10-24T19:22:58.779Z,101554.28
2017-10-24T19:25:27.114Z,101543.28
2017-10-24T19:27:55.863Z,101545.11
2017-10-24T19:30:24.227Z,101543.44
2017-10-24T19:32:53.343Z,101543.07
2017-10-24T19:35:21.736Z,101542.05
2017-10-24T19:37:50.104Z,101536.62
2017-10-24T19:40:18.782Z,101538.05
2017-10-24T19:42:47.462Z,101530.55
2017-10-24T19:45:15.810Z,101538.27
2017-10-24T19:47:44.409Z,101542.95
2017-10-24T19:50:12.856Z,101546.44
2017-10-24T19:52:41.998Z,101550.12
2017-10-24T19:55:10.337Z,101550.72
2017-10-24T19:57:39.489Z,101554.09
2017-10-24T20:00:07.856Z,101553.09
2017-10-24T20:02:36.438Z,101557.95
2017-10-24T20:05:04.807Z,101548.56
2017-10-24T20:07:33.146Z,101554.00
2017-10-24T20:10:01.569Z,101556.20
2017-10-24T20:12:31.306Z,101555.66
2017-10-24T20:15:00.579Z,101552.64
2017-10-24T20:17:28.928Z,101556.53
2017-10-24T20:19:57.317Z,101559.41
2017-10-24T20:22:26.444Z,101546.23
2017-10-24T20:24:54.837Z,101552.37
2017-10-24T20:27:23.218Z,101555.46
2017-10-24T20:29:52.202Z,101562.63
2017-10-24T20:32:20.986Z,101552.45
2017-10-24T20:34:50.091Z,101549.96
2017-10-24T20:37:18.430Z,101552.59
2017-10-24T20:39:46.821Z,101549.80
2017-10-24T20:42:15.590Z,101549.47
2017-10-24T20:44:44.727Z,101541.33
2017-10-24T20:47:13.074Z,101547.69
2017-10-24T20:49:43.070Z,101543.28
2017-10-24T20:52:11.402Z,101544.91
2017-10-24T20:54:39.908Z,101553.58
2017-10-24T20:57:09.277Z,101542.82
2017-10-24T20:59:38.426Z,101545.36
2017-10-24T21:02:06.766Z,101547.44
2017-10-24T21:04:35.138Z,101544.92
2017-10-24T21:07:03.518Z,101538.94
2017-10-24T21:09:31.851Z,101531.95
2017-10-24T21:12:00.232Z,101541.22
2017-10-24T21:14:28.578Z,101544.98
2017-10-24T21:16:57.707Z,101538.67
2017-10-24T21:19:27.942Z,101531.34
2017-10-24T21:21:57.067Z,101534.52
2017-10-24T21:24:26.220Z,101534.18
2017-10-24T21:26:54.587Z,101545.83
2017-10-24T21:29:23.739Z,101549.91
2017-10-24T21:31:53.248Z,101544.72
2017-10-24T21:34:21.654Z,101552.50
2017-10-24T21:36:50.000Z,101548.67
2017-10-24T21:39:18.972Z,101542.55
2017-10-24T21:41:48.169Z,101548.78
2017-10-24T21:44:17.231Z,101542.27
2017-10-24T21:46:45.588Z,101543.64
2017-10-24T21:49:13.967Z,101538.60
2017-10-24T21:51:42.317Z,101545.48
2017-10-24T21:54:10.689Z,101547.61
2017-10-24T21:56:39.060Z,101548.33
2017-10-24T21:59:07.404Z,101549.61
2017-10-24T22:01:36.554Z,101541.58
2017-10-24T22:04:05.007Z,101544.14
2017-10-24T22:06:34.109Z,101544.05
2017-10-24T22:09:03.236Z,101540.91
2017-10-24T22:11:31.602Z,101532.19
2017-10-24T22:14:00.607Z,101523.80
2017-10-24T22:16:28.993Z,101527.81
2017-10-24T22:18:57.369Z,101525.11
2017-10-24T22:21:25.719Z,101516.33
2017-10-24T22:23:54.836Z,101524.78
2017-10-24T22:26:23.393Z,101526.04
2017-10-24T22:28:52.745Z,101523.70
2017-10-24T22:31:21.853Z,101524.37
2017-10-24T22:33:50.542Z,101531.52
2017-10-24T22:36:20.505Z,101529.45
2017-10-24T22:38:49.105Z,101531.95
2017-10-24T22:41:18.336Z,101529.22
2017-10-24T22:43:46.659Z,101529.41
2017-10-24T22:46:16.496Z,101530.25
2017-10-24T22:48:45.146Z,101530.20
2017-10-24T22:51:13.563Z,101528.03
2017-10-24T22:53:41.914Z,101529.43
2017-10-24T22:56:10.318Z,101524.75
2017-10-24T22:58:39.843Z,101524.02
2017-10-24T23:01:08.226Z,101520.09
2017-10-24T23:03:36.856Z,101509.71
2017-10-24T23:06:06.214Z,101507.00
2017-10-24T23:08:34.575Z,101510.78
2017-10-24T23:11:03.906Z,101508.61
2017-10-24T23:13:33.270Z,101495.64
2017-10-24T23:16:01.743Z,101498.80
2017-10-24T23:18:30.125Z,101498.11
2017-10-24T23:20:59.266Z,101501.40
2017-10-24T23:23:27.609Z,101504.66
2017-10-24T23:25:55.978Z,101502.16
2017-10-24T23:28:25.091Z,101496.19
2017-10-24T23:30:53.416Z,101497.05
2017-10-24T23:33:21.885Z,101496.90
2017-10-24T23:35:50.725Z,101499.16
2017-10-24T23:38:19.850Z,101510.23
2017-10-24T23:40:49.308Z,101512.73
2017-10-24T23:43:18.460Z,101515.20
2017-10-24T23:45:46.883Z,101519.64
2017-10-24T23:48:16.044Z,101515.89
2017-10-24T23:50:44.407Z,101513.00
2017-10-24T23:53:12.762Z,101517.92
2017-10-24T23:55:41.286Z,101525.39
2017-10-24T23:58:09.621Z,101525.26
